createdAt,value
2018-12-02T00:00:53.948Z,3.10
2018-12-02T00:03:27.813Z,2.50
2018-12-02T00:06:01.782Z,2.53
2018-12-02T00:08:35.690Z,1.77
2018-12-02T00:11:09.942Z,2.37
2018-12-02T00:13:43.739Z,1.00
2018-12-02T00:16:18.018Z,2.33
2018-12-02T00:18:52.315Z,1.53
2018-12-02T00:21:26.376Z,1.10
2018-12-02T00:24:00.262Z,2.87
2018-12-02T00:26:34.494Z,1.17
2018-12-02T00:29:08.373Z,2.00
2018-12-02T00:31:42.443Z,1.40
2018-12-02T00:34:16.325Z,1.00
2018-12-02T00:36:50.225Z,0.80
2018-12-02T00:39:24.223Z,1.17
2018-12-02T00:41:58.708Z,2.20
2018-12-02T00:44:32.904Z,1.43
2018-12-02T00:47:07.028Z,1.83
2018-12-02T00:49:41.295Z,0.80
2018-12-02T00:52:15.195Z,1.23
2018-12-02T00:54:49.204Z,1.10
2018-12-02T00:57:23.033Z,1.20
2018-12-02T00:59:57.059Z,1.13
2018-12-02T01:02:31.274Z,1.17
2018-12-02T01:05:08.234Z,0.93
2018-12-02T01:07:42.263Z,1.70
2018-12-02T01:10:19.397Z,1.40
2018-12-02T01:12:56.603Z,1.10
2018-12-02T01:15:31.547Z,1.33
2018-12-02T01:18:06.306Z,2.10
2018-12-02T01:20:40.293Z,0.90
2018-12-02T01:23:14.228Z,1.10
2018-12-02T01:25:48.203Z,2.23
2018-12-02T01:28:22.526Z,1.70
2018-12-02T01:30:56.686Z,1.50
2018-12-02T01:33:30.687Z,1.37
2018-12-02T01:36:04.691Z,2.70
2018-12-02T01:38:38.650Z,1.20
2018-12-02T01:41:12.734Z,1.47
2018-12-02T01:43:46.842Z,1.30
2018-12-02T01:46:20.811Z,1.87
2018-12-02T01:48:54.641Z,1.50
2018-12-02T01:51:28.544Z,1.50
2018-12-02T01:54:02.820Z,1.43
2018-12-02T01:56:36.626Z,2.13
2018-12-02T01:59:10.437Z,1.37
2018-12-02T02:01:44.251Z,1.97
2018-12-02T02:04:18.247Z,1.70
2018-12-02T02:06:52.073Z,1.90
2018-12-02T02:09:26.196Z,1.57
2018-12-02T02:12:00.376Z,1.50
2018-12-02T02:14:34.186Z,1.70
2018-12-02T02:17:08.223Z,1.87
2018-12-02T02:19:42.111Z,2.90
2018-12-02T02:22:15.887Z,2.63
2018-12-02T02:24:49.887Z,2.80
2018-12-02T02:27:24.031Z,2.70
2018-12-02T02:29:57.931Z,1.73
2018-12-02T02:32:31.953Z,1.87
2018-12-02T02:35:05.948Z,1.90
2018-12-02T02:37:40.501Z,1.90
2018-12-02T02:40:18.235Z,1.90
2018-12-02T02:42:52.198Z,2.63
2018-12-02T02:45:26.379Z,1.70
2018-12-02T02:48:00.388Z,2.40
2018-12-02T02:50:34.086Z,2.17
2018-12-02T02:53:08.268Z,1.73
2018-12-02T02:55:41.843Z,1.93
2018-12-02T02:58:16.003Z,1.60
2018-12-02T03:00:50.041Z,2.10
2018-12-02T03:03:24.102Z,1.70
2018-12-02T03:05:57.995Z,2.03
2018-12-02T03:08:31.883Z,2.67
2018-12-02T03:11:06.009Z,2.37
2018-12-02T03:13:39.843Z,1.93
2018-12-02T03:16:13.668Z,1.67
2018-12-02T03:18:47.542Z,1.80
2018-12-02T03:21:21.862Z,1.60
2018-12-02T03:23:56.103Z,2.33
2018-12-02T03:26:30.195Z,1.90
2018-12-02T03:29:04.428Z,1.83
2018-12-02T03:31:38.141Z,3.13
2018-12-02T03:34:11.976Z,1.90
2018-12-02T03:36:52.512Z,1.60
2018-12-02T03:39:26.586Z,2.10
2018-12-02T03:42:00.417Z,1.70
2018-12-02T03:44:34.427Z,1.40
2018-12-02T03:47:08.485Z,1.60
2018-12-02T03:49:42.380Z,2.30
2018-12-02T03:52:16.471Z,2.33
2018-12-02T03:54:50.463Z,2.07
2018-12-02T03:57:24.205Z,1.67
2018-12-02T03:59:58.296Z,1.70
2018-12-02T04:02:32.466Z,2.23
2018-12-02T04:05:07.168Z,1.60
2018-12-02T04:07:41.222Z,1.97
2018-12-02T04:10:15.891Z,1.50
2018-12-02T04:12:50.765Z,1.97
2018-12-02T04:15:25.142Z,1.30
2018-12-02T04:17:59.102Z,1.43
2018-12-02T04:20:33.325Z,1.40
2018-12-02T04:23:07.361Z,2.80
2018-12-02T04:25:41.197Z,1.70
2018-12-02T04:28:15.332Z,1.47
2018-12-02T04:30:49.501Z,1.30
2018-12-02T04:33:23.418Z,1.50
2018-12-02T04:35:57.419Z,1.30
2018-12-02T04:38:31.196Z,2.20
2018-12-02T04:41:06.026Z,1.77
2018-12-02T04:43:39.932Z,1.40
2018-12-02T04:46:13.859Z,1.57
2018-12-02T04:48:47.791Z,1.40
2018-12-02T04:51:21.656Z,1.43
2018-12-02T04:53:55.581Z,1.57
2018-12-02T04:56:29.358Z,1.50
2018-12-02T04:59:03.387Z,1.50
2018-12-02T05:01:37.402Z,1.67
2018-12-02T05:04:11.572Z,2.60
2018-12-02T05:06:45.451Z,3.57
2018-12-02T05:09:20.259Z,1.50
2018-12-02T05:11:53.776Z,1.50
2018-12-02T05:14:27.519Z,2.40
2018-12-02T05:17:01.307Z,1.80
2018-12-02T05:19:35.295Z,2.30
2018-12-02T05:22:09.066Z,1.83
2018-12-02T05:24:43.018Z,1.63
2018-12-02T05:27:16.924Z,3.53
2018-12-02T05:29:50.993Z,2.50
2018-12-02T05:32:25.297Z,1.73
2018-12-02T05:34:59.336Z,1.40
2018-12-02T05:37:33.337Z,1.60
2018-12-02T05:40:10.712Z,2.47
2018-12-02T05:42:44.527Z,2.13
2018-12-02T05:45:18.952Z,1.27
2018-12-02T05:47:52.739Z,2.50
2018-12-02T05:50:26.681Z,1.07
2018-12-02T05:53:00.487Z,2.10
2018-12-02T05:55:35.929Z,1.23
2018-12-02T05:58:09.794Z,2.20
2018-12-02T06:00:43.895Z,1.23
2018-12-02T06:03:17.722Z,1.50
2018-12-02T06:05:51.538Z,3.13
2018-12-02T06:08:25.426Z,1.57
2018-12-02T06:10:59.136Z,2.07
2018-12-02T06:13:33.006Z,1.70
2018-12-02T06:16:06.945Z,1.80
2018-12-02T06:18:41.052Z,1.43
2018-12-02T06:21:14.881Z,1.50
2018-12-02T06:23:48.941Z,2.33
2018-12-02T06:26:22.868Z,1.93
2018-12-02T06:28:56.691Z,1.47
2018-12-02T06:31:30.617Z,1.17
2018-12-02T06:34:05.038Z,2.67
2018-12-02T06:36:38.786Z,1.93
2018-12-02T06:39:12.641Z,1.53
2018-12-02T06:41:46.562Z,1.30
2018-12-02T06:44:20.445Z,1.30
2018-12-02T06:46:54.306Z,1.10
2018-12-02T06:49:28.307Z,1.07
2018-12-02T06:52:02.085Z,1.67
2018-12-02T06:54:37.097Z,1.30
2018-12-02T06:57:12.098Z,1.77
2018-12-02T06:59:51.608Z,0.70
2018-12-02T07:02:44.352Z,1.63
2018-12-02T07:05:21.633Z,1.57
2018-12-02T07:07:55.484Z,1.07
2018-12-02T07:10:29.226Z,1.67
2018-12-02T07:13:03.223Z,2.13
2018-12-02T07:15:37.310Z,0.80
2018-12-02T07:18:16.119Z,1.37
2018-12-02T07:20:52.606Z,0.70
2018-12-02T07:23:27.520Z,0.70
2018-12-02T07:26:02.341Z,1.23
2018-12-02T07:28:36.172Z,0.90
2018-12-02T07:31:10.081Z,2.23
2018-12-02T07:33:44.049Z,1.13
2018-12-02T07:36:18.013Z,1.97
2018-12-02T07:41:03.617Z,2.97
2018-12-02T07:43:37.598Z,1.33
2018-12-02T07:46:11.582Z,0.80
2018-12-02T07:48:45.827Z,0.70
2018-12-02T07:51:19.572Z,0.73
2018-12-02T07:53:54.006Z,0.70
2018-12-02T07:56:27.898Z,1.23
2018-12-02T07:59:01.890Z,1.50
2018-12-02T08:01:36.022Z,0.67
2018-12-02T08:04:09.911Z,1.63
2018-12-02T08:06:43.698Z,1.30
2018-12-02T08:09:17.691Z,3.57
2018-12-02T08:11:51.729Z,2.20
2018-12-02T08:14:25.761Z,1.17
2018-12-02T08:16:59.590Z,0.83
2018-12-02T08:19:33.406Z,1.40
2018-12-02T08:22:07.292Z,1.67
2018-12-02T08:24:41.132Z,1.10
2018-12-02T08:27:15.024Z,3.33
2018-12-02T08:29:49.041Z,1.37
2018-12-02T08:32:23.263Z,1.10
2018-12-02T08:34:57.235Z,1.17
2018-12-02T08:37:31.242Z,1.23
2018-12-02T08:40:08.264Z,0.73
2018-12-02T08:42:42.094Z,1.30
2018-12-02T08:45:17.135Z,1.13
2018-12-02T08:47:51.568Z,1.47
2018-12-02T08:50:25.440Z,1.47
2018-12-02T08:52:59.419Z,0.97
2018-12-02T08:55:33.621Z,0.50
2018-12-02T08:58:07.619Z,1.23
2018-12-02T09:00:41.487Z,0.90
2018-12-02T09:03:15.240Z,1.03
2018-12-02T09:05:49.136Z,0.90
2018-12-02T09:08:23.187Z,0.70
2018-12-02T09:10:57.234Z,1.10
2018-12-02T09:13:31.074Z,1.30
2018-12-02T09:16:05.446Z,1.10
2018-12-02T09:18:39.299Z,2.23
2018-12-02T09:21:13.113Z,1.43
2018-12-02T09:23:47.531Z,2.47
2018-12-02T09:26:20.896Z,5.73
2018-12-02T09:28:55.443Z,2.20
2018-12-02T09:31:29.476Z,2.00
2018-12-02T09:34:03.500Z,2.43
2018-12-02T09:36:37.876Z,1.30
2018-12-02T09:39:12.471Z,3.63
2018-12-02T09:41:46.836Z,3.30
2018-12-02T09:44:20.939Z,4.90
2018-12-02T09:46:55.288Z,4.03
2018-12-02T09:49:29.262Z,3.10
2018-12-02T09:52:03.356Z,2.60
2018-12-02T09:54:37.275Z,2.30
2018-12-02T09:57:11.081Z,1.70
2018-12-02T09:59:45.211Z,2.80
2018-12-02T10:02:18.977Z,1.73
2018-12-02T10:04:53.052Z,2.00
2018-12-02T10:07:26.990Z,1.33
2018-12-02T10:10:00.960Z,0.80
2018-12-02T10:12:35.126Z,3.00
2018-12-02T10:15:12.450Z,2.53
2018-12-02T10:17:46.438Z,2.10
2018-12-02T10:20:20.463Z,2.70
2018-12-02T10:22:54.783Z,2.57
2018-12-02T10:25:29.250Z,3.63
2018-12-02T10:28:03.781Z,3.67
2018-12-02T10:30:39.075Z,2.60
2018-12-02T10:33:13.270Z,3.73
2018-12-02T10:35:47.644Z,3.83
2018-12-02T10:38:21.686Z,3.90
2018-12-02T10:40:56.057Z,3.03
2018-12-02T10:43:30.161Z,3.00
2018-12-02T10:46:04.595Z,3.57
2018-12-02T10:48:38.865Z,2.70
2018-12-02T10:51:13.465Z,2.00
2018-12-02T10:53:47.845Z,1.60
2018-12-02T10:56:22.277Z,1.53
2018-12-02T10:58:56.541Z,0.80
2018-12-02T11:01:36.217Z,1.73
2018-12-02T11:04:10.761Z,1.87
2018-12-02T11:06:45.434Z,1.10
2018-12-02T11:09:20.018Z,1.00
2018-12-02T11:11:54.939Z,1.07
2018-12-02T11:14:28.952Z,1.30
2018-12-02T11:17:03.460Z,0.93
2018-12-02T11:19:37.882Z,1.80
2018-12-02T11:22:12.341Z,0.83
2018-12-02T11:24:46.580Z,2.77
2018-12-02T11:27:20.972Z,1.20
2018-12-02T11:29:55.583Z,2.30
2018-12-02T11:32:30.235Z,0.83
2018-12-02T11:35:05.237Z,1.40
2018-12-02T11:37:39.866Z,1.10
2018-12-02T11:40:16.786Z,0.93
2018-12-02T11:42:52.241Z,1.63
2018-12-02T11:45:26.307Z,2.73
2018-12-02T11:48:00.496Z,0.80
2018-12-02T11:50:35.443Z,0.70
2018-12-02T11:53:09.547Z,1.00
2018-12-02T11:55:43.669Z,1.37
2018-12-02T11:58:17.899Z,0.53
2018-12-02T12:00:52.110Z,0.80
2018-12-02T12:03:26.594Z,1.43
2018-12-02T12:06:00.820Z,0.67
2018-12-02T12:08:35.435Z,0.80
2018-12-02T12:11:10.536Z,0.70
2018-12-02T12:13:45.186Z,2.30
2018-12-02T12:16:19.384Z,0.93
2018-12-02T12:18:53.475Z,2.60
2018-12-02T12:21:28.007Z,1.60
2018-12-02T12:24:02.310Z,0.80
2018-12-02T12:26:37.199Z,1.47
2018-12-02T12:29:11.189Z,1.37
2018-12-02T12:31:45.501Z,2.37
2018-12-02T12:34:20.584Z,2.97
2018-12-02T12:36:54.899Z,2.37
2018-12-02T12:39:29.196Z,1.30
2018-12-02T12:42:03.674Z,1.77
2018-12-02T12:44:37.690Z,2.03
2018-12-02T12:47:12.010Z,3.57
2018-12-02T12:49:46.172Z,1.80
2018-12-02T12:52:20.180Z,2.67
2018-12-02T12:54:54.576Z,2.17
2018-12-02T12:57:29.287Z,1.50
2018-12-02T13:00:06.346Z,1.90
2018-12-02T13:02:40.533Z,1.30
2018-12-02T13:05:18.007Z,1.50
2018-12-02T13:07:53.012Z,1.67
2018-12-02T13:10:27.216Z,1.60
2018-12-02T13:13:01.731Z,1.50
2018-12-02T13:15:36.005Z,2.13
2018-12-02T13:18:10.871Z,2.13
2018-12-02T13:20:52.518Z,1.80
2018-12-02T13:23:26.974Z,2.13
2018-12-02T13:26:01.075Z,2.27
2018-12-02T13:28:42.136Z,2.10
2018-12-02T13:31:16.514Z,2.27
2018-12-02T13:33:50.727Z,3.40
2018-12-02T13:36:24.938Z,2.17
2018-12-02T13:38:59.334Z,2.70
2018-12-02T13:41:33.979Z,2.97
2018-12-02T13:44:08.622Z,2.93
2018-12-02T13:46:42.801Z,2.90
2018-12-02T13:49:16.988Z,3.37
2018-12-02T13:51:51.160Z,3.67
2018-12-02T13:54:30.825Z,4.23
2018-12-02T13:57:06.348Z,4.10
2018-12-02T13:59:40.771Z,4.30
2018-12-02T14:02:15.079Z,5.20
2018-12-02T14:04:49.542Z,5.10
2018-12-02T14:07:23.868Z,7.00
2018-12-02T14:09:58.234Z,6.07
2018-12-02T14:12:32.451Z,6.50
2018-12-02T14:16:15.311Z,6.87
2018-12-02T14:18:50.681Z,6.53
2018-12-02T14:21:24.939Z,7.77
2018-12-02T14:23:59.302Z,7.37
2018-12-02T14:26:33.602Z,7.97
2018-12-02T14:29:14.952Z,8.73
2018-12-02T14:31:53.803Z,8.33
2018-12-02T14:34:28.016Z,8.80
2018-12-02T14:37:02.346Z,9.70
2018-12-02T14:39:36.813Z,10.43
2018-12-02T14:42:11.059Z,12.30
2018-12-02T14:44:45.699Z,10.77
2018-12-02T14:47:20.081Z,11.63
2018-12-02T14:49:54.409Z,11.37
2018-12-02T14:52:28.794Z,11.67
2018-12-02T14:55:03.264Z,12.00
2018-12-02T14:57:37.610Z,13.30
2018-12-02T15:00:15.182Z,11.87
2018-12-02T15:02:49.567Z,12.47
2018-12-02T15:05:23.917Z,12.37
2018-12-02T15:07:58.367Z,12.03
2018-12-02T15:10:37.054Z,12.80
2018-12-02T15:13:15.042Z,12.53
2018-12-02T15:15:51.942Z,13.17
2018-12-02T15:18:26.510Z,11.80
2018-12-02T15:21:00.848Z,11.13
2018-12-02T15:23:37.032Z,11.90
2018-12-02T15:26:11.715Z,11.80
2018-12-02T15:28:51.686Z,11.67
2018-12-02T15:31:26.559Z,11.60
2018-12-02T15:34:01.198Z,11.10
2018-12-02T15:36:35.651Z,11.97
2018-12-02T15:39:10.412Z,14.37
2018-12-02T15:41:44.935Z,17.03
2018-12-02T15:44:20.576Z,14.87
2018-12-02T15:46:55.626Z,14.30
2018-12-02T15:49:31.381Z,14.20
2018-12-02T15:52:05.997Z,14.80
2018-12-02T15:54:46.350Z,13.73
2018-12-02T15:57:21.260Z,12.60
2018-12-02T15:59:55.879Z,10.80
2018-12-02T16:02:35.261Z,7.07
2018-12-02T16:05:09.545Z,8.20
2018-12-02T16:07:49.019Z,7.50
2018-12-02T16:10:23.259Z,6.80
2018-12-02T16:12:57.739Z,6.63
2018-12-02T16:15:33.512Z,6.83
2018-12-02T16:18:10.692Z,7.27
2018-12-02T16:20:48.324Z,6.60
2018-12-02T16:23:24.093Z,7.00
2018-12-02T16:25:58.735Z,7.70
2018-12-02T16:28:32.962Z,9.87
2018-12-02T16:31:07.515Z,9.53
2018-12-02T16:33:41.876Z,9.00
2018-12-02T16:36:16.202Z,8.70
2018-12-02T16:38:50.755Z,9.67
2018-12-02T16:41:26.067Z,10.67
2018-12-02T16:44:00.768Z,11.37
2018-12-02T16:46:35.077Z,11.20
2018-12-02T16:49:09.300Z,13.07
2018-12-02T16:51:43.862Z,12.67
2018-12-02T16:54:17.854Z,14.40
2018-12-02T16:56:52.971Z,14.10
2018-12-02T16:59:29.596Z,21.13
2018-12-02T17:02:06.088Z,18.17
2018-12-02T17:04:40.887Z,15.63
2018-12-02T17:07:15.298Z,17.50
2018-12-02T17:09:49.570Z,17.63
2018-12-02T17:12:24.455Z,20.30
2018-12-02T17:14:59.259Z,19.57
2018-12-02T17:17:33.767Z,17.67
2018-12-02T17:20:11.913Z,19.50
2018-12-02T17:22:46.775Z,18.03
2018-12-02T17:25:21.218Z,17.03
2018-12-02T17:27:55.803Z,22.87
2018-12-02T17:30:40.456Z,18.00
2018-12-02T17:33:15.239Z,22.17
2018-12-02T17:35:49.824Z,18.63
2018-12-02T17:38:25.600Z,16.73
2018-12-02T17:41:00.522Z,15.17
2018-12-02T17:43:35.108Z,15.23
2018-12-02T17:46:09.961Z,13.40
2018-12-02T17:48:44.447Z,19.53
2018-12-02T17:51:18.767Z,16.80
2018-12-02T17:53:52.955Z,13.83
2018-12-02T17:56:27.849Z,15.43
2018-12-02T17:59:02.886Z,12.40
2018-12-02T18:01:37.682Z,11.93
2018-12-02T18:04:12.286Z,13.57
2018-12-02T18:06:46.839Z,12.97
2018-12-02T18:09:21.919Z,14.27
2018-12-02T18:11:57.025Z,13.47
2018-12-02T18:14:31.851Z,13.63
2018-12-02T18:17:06.503Z,14.40
2018-12-02T18:19:41.457Z,14.27
2018-12-02T18:22:16.279Z,11.47
2018-12-02T18:24:50.638Z,13.83
2018-12-02T18:27:25.598Z,13.60
2018-12-02T18:30:00.096Z,11.70
2018-12-02T18:32:34.981Z,13.23
2018-12-02T18:35:22.688Z,12.10
2018-12-02T18:37:59.379Z,16.30
2018-12-02T18:40:34.511Z,13.50
2018-12-02T18:43:09.036Z,15.00
2018-12-02T18:45:43.717Z,10.80
2018-12-02T18:48:18.738Z,11.67
2018-12-02T18:50:53.229Z,12.30
2018-12-02T18:53:28.023Z,11.33
2018-12-02T18:56:02.765Z,12.17
2018-12-02T18:58:37.336Z,13.40
2018-12-02T19:01:11.687Z,10.13
2018-12-02T19:03:46.101Z,13.07
2018-12-02T19:06:20.515Z,10.27
2018-12-02T19:08:54.736Z,11.13
2018-12-02T19:11:28.931Z,12.37
2018-12-02T19:14:03.667Z,10.53
2018-12-02T19:16:38.028Z,10.53
2018-12-02T19:19:12.312Z,11.33
2018-12-02T19:21:46.773Z,9.77
2018-12-02T19:24:21.126Z,10.43
2018-12-02T19:26:55.513Z,25.20
2018-12-02T19:29:29.562Z,13.63
2018-12-02T19:32:04.032Z,11.00
2018-12-02T19:34:38.357Z,10.70
2018-12-02T19:37:12.665Z,12.60
2018-12-02T19:39:47.332Z,12.03
2018-12-02T19:42:21.740Z,9.43
2018-12-02T19:44:56.255Z,8.23
2018-12-02T19:47:30.728Z,7.93
2018-12-02T19:50:06.906Z,9.37
2018-12-02T19:52:41.872Z,8.27
2018-12-02T19:55:16.036Z,10.37
2018-12-02T19:57:50.583Z,8.87
2018-12-02T20:00:31.067Z,8.20
2018-12-02T20:03:05.479Z,9.43
2018-12-02T20:05:40.252Z,8.40
2018-12-02T20:08:15.700Z,8.17
2018-12-02T20:10:51.757Z,6.97
2018-12-02T20:13:26.182Z,6.70
2018-12-02T20:16:06.127Z,6.40
2018-12-02T20:18:41.030Z,8.50
2018-12-02T20:21:16.547Z,6.73
2018-12-02T20:23:56.758Z,7.00
2018-12-02T20:26:31.403Z,5.90
2018-12-02T20:29:06.343Z,6.83
2018-12-02T20:31:41.741Z,5.17
2018-12-02T20:34:16.859Z,5.40
2018-12-02T20:36:51.772Z,6.93
2018-12-02T20:39:26.525Z,6.77
2018-12-02T20:42:01.267Z,6.70
2018-12-02T20:44:36.128Z,5.62
2018-12-02T20:47:10.767Z,6.03
2018-12-02T20:49:45.615Z,4.80
2018-12-02T20:52:20.417Z,5.67
2018-12-02T20:54:55.180Z,4.77
2018-12-02T20:57:29.721Z,4.83
2018-12-02T21:00:05.714Z,4.63
2018-12-02T21:02:41.376Z,4.30
2018-12-02T21:05:18.371Z,3.97
2018-12-02T21:07:52.864Z,4.13
2018-12-02T21:10:27.543Z,4.07
2018-12-02T21:13:02.033Z,3.77
2018-12-02T21:15:36.366Z,3.12
2018-12-02T21:18:10.548Z,6.00
2018-12-02T21:20:44.657Z,4.60
2018-12-02T21:23:19.411Z,3.47
2018-12-02T21:25:54.156Z,3.83
2018-12-02T21:28:28.670Z,3.50
2018-12-02T21:31:03.257Z,3.80
2018-12-02T21:33:37.583Z,4.27
2018-12-02T21:36:12.147Z,4.73
2018-12-02T21:38:46.596Z,5.50
2018-12-02T21:41:20.774Z,5.67
2018-12-02T21:43:55.157Z,4.67
2018-12-02T21:46:29.381Z,4.80
2018-12-02T21:49:04.556Z,4.50
2018-12-02T21:51:38.715Z,5.33
2018-12-02T21:54:12.909Z,4.50
2018-12-02T21:56:47.241Z,5.27
2018-12-02T21:59:21.508Z,4.20
2018-12-02T22:01:56.091Z,5.50
2018-12-02T22:04:30.745Z,5.37
2018-12-02T22:07:05.899Z,4.30
2018-12-02T22:09:40.457Z,5.07
2018-12-02T22:12:14.796Z,3.70
2018-12-02T22:14:48.946Z,5.87
2018-12-02T22:17:23.281Z,5.20
2018-12-02T22:19:57.511Z,6.47
2018-12-02T22:22:31.985Z,5.30
2018-12-02T22:25:08.440Z,4.37
2018-12-02T22:27:44.105Z,4.43
2018-12-02T22:30:22.659Z,6.73
2018-12-02T22:32:57.096Z,5.30
2018-12-02T22:35:31.239Z,4.83
2018-12-02T22:38:06.059Z,7.33
2018-12-02T22:40:41.076Z,5.27
2018-12-02T22:43:15.268Z,5.63
2018-12-02T22:45:50.133Z,7.80
2018-12-02T22:48:24.075Z,5.77
2018-12-02T22:50:58.364Z,6.90
2018-12-02T22:53:32.410Z,6.40
2018-12-02T22:56:06.680Z,6.30
2018-12-02T22:58:41.064Z,8.17
2018-12-02T23:01:21.709Z,6.00
2018-12-02T23:03:55.269Z,7.23
2018-12-02T23:06:29.549Z,6.70
2018-12-02T23:09:05.375Z,6.10
2018-12-02T23:11:39.905Z,7.00
2018-12-02T23:14:14.515Z,7.73
2018-12-02T23:16:59.743Z,5.77
2018-12-02T23:19:34.001Z,6.57
2018-12-02T23:22:08.398Z,6.10
2018-12-02T23:24:42.602Z,6.87
2018-12-02T23:27:16.995Z,4.17
2018-12-02T23:29:51.065Z,5.13
2018-12-02T23:32:24.995Z,6.80
2018-12-02T23:34:59.123Z,3.90
2018-12-02T23:37:33.237Z,3.87
2018-12-02T23:40:25.654Z,3.97
2018-12-02T23:42:59.965Z,3.87
2018-12-02T23:45:34.283Z,3.70
2018-12-02T23:48:08.607Z,4.00
2018-12-02T23:50:42.717Z,3.63
2018-12-02T23:53:16.904Z,3.83
2018-12-02T23:55:51.440Z,6.10
2018-12-02T23:58:25.543Z,5.23
